SSEC Globe Logo

Space Science and Engineering Center

Regional Terminal Forecasts

KMSN 152009Z 1520/1618 27007KT P6SM BKN027 FM152200 26006KT
     P6SM SCT015 OVC020 TEMPO 1523/1602 -SN FM160200 19004KT
     P6SM -SN OVC020 FM160500 15004KT P6SM OVC040=
KMKE 151724Z 1518/1624 29014G22KT P6SM BKN035 FM152200
     28009KT P6SM -SN BKN030 FM160300 26006KT P6SM -SN
     OVC025 FM160600 26004KT P6SM OVC035 FM160800 35004KT
     P6SM OVC040 FM162100 12007KT P6SM BKN045=
KGRB 151730Z 1518/1618 28010G17KT P6SM SCT025 SCT050
     FM152200 27004KT P6SM SCT025 BKN090 FM160600 VRB03KT
     P6SM OVC040 FM161000 05008KT 4SM -SN OVC025 TEMPO
     1611/1615 2SM -SN OVC015 FM161700 07009KT 6SM -SN
     OVC020=
TAF AMD KAUW 152056Z 1521/1618 27008KT P6SM SCT025 FM152200
     VRB03KT P6SM SCT025 BKN070 FM160400 VRB03KT P6SM OVC035
     FM160900 09006KT 4SM -SN BKN015 OVC025 TEMPO 1610/1614
     2SM -SN FM161600 10009KT 6SM -SN OVC020=
TAF AMD KEAU 152033Z 1521/1618 28007KT P6SM OVC020 FM160200
     11003KT 3SM -SN OVC025 FM161000 09007KT P6SM OVC015=
TAF AMD KLSE 151736Z 1518/1618 26004KT P6SM -SN OVC020
     FM160200 16003KT 5SM -SN OVC015 FM160400 15004KT P6SM
     OVC025 FM160600 13004KT P6SM OVC045=
TAF AMD KDBQ 152128Z 1521/1618 24011KT P6SM BKN050 FM160200
     20008KT P6SM BKN100 FM161200 18005KT P6SM SKC=
KRFD 152033Z 1521/1618 25012KT P6SM -SN BKN025 OVC040
     FM152300 23007KT P6SM SCT025 OVC040 FM160400 20006KT
     P6SM SCT030 OVC080=
KORD 152032Z 1521/1624 26013G20KT P6SM BKN028 OVC040
     FM152300 24009KT P6SM SCT025 OVC040 FM160100 23007KT
     P6SM -SHSN SCT025 OVC040 FM160400 20007KT P6SM SCT030
     BKN080 FM162100 16007KT P6SM FEW150=